createdAt,value
2023-03-20T00:01:17.248Z,9.46
2023-03-20T00:03:44.206Z,8.71
2023-03-20T00:06:20.133Z,9.09
2023-03-20T00:08:48.018Z,9.51
2023-03-20T00:11:29.119Z,9.70
2023-03-20T00:14:10.059Z,9.88
2023-03-20T00:16:39.130Z,10.08
2023-03-20T00:19:07.054Z,10.09
2023-03-20T00:21:34.507Z,10.35
2023-03-20T00:24:02.112Z,10.32
2023-03-20T00:26:33.620Z,9.95
2023-03-20T00:29:01.864Z,9.45
2023-03-20T00:31:34.134Z,9.48
2023-03-20T00:34:03.832Z,9.38
2023-03-20T00:36:30.789Z,9.67
2023-03-20T00:38:58.227Z,9.70
2023-03-20T00:41:32.288Z,9.67
2023-03-20T00:44:02.484Z,9.81
2023-03-20T00:46:32.610Z,9.80
2023-03-20T00:48:59.484Z,9.94
2023-03-20T00:51:26.133Z,9.85
2023-03-20T00:53:53.059Z,9.56
2023-03-20T00:56:39.603Z,9.52
2023-03-20T00:59:07.422Z,9.21
2023-03-20T01:01:34.291Z,9.77
2023-03-20T01:04:01.183Z,10.24
2023-03-20T01:06:29.073Z,10.17
2023-03-20T01:08:57.859Z,10.10
2023-03-20T01:11:24.946Z,9.64
2023-03-20T01:13:52.520Z,9.63
2023-03-20T01:16:27.290Z,9.57
2023-03-20T01:18:54.390Z,10.01
2023-03-20T01:21:21.764Z,10.27
2023-03-20T01:23:49.746Z,10.00
2023-03-20T01:26:25.337Z,9.98
2023-03-20T01:28:52.319Z,9.74
2023-03-20T01:31:19.888Z,9.66
2023-03-20T01:33:46.929Z,9.60
2023-03-20T01:36:16.041Z,9.84
2023-03-20T01:38:43.162Z,9.78
2023-03-20T01:41:14.330Z,9.85
2023-03-20T01:43:41.398Z,9.28
2023-03-20T01:46:25.223Z,9.57
2023-03-20T01:49:00.869Z,9.70
2023-03-20T01:51:29.876Z,9.88
2023-03-20T01:54:01.236Z,10.01
2023-03-20T01:56:31.135Z,9.58
2023-03-20T01:59:01.899Z,9.74
2023-03-20T02:01:29.428Z,9.62
2023-03-20T02:03:57.565Z,9.18
2023-03-20T02:06:25.534Z,9.83
2023-03-20T02:08:53.630Z,9.70
2023-03-20T02:11:25.447Z,9.76
2023-03-20T02:13:53.727Z,9.56
2023-03-20T02:16:21.184Z,9.69
2023-03-20T02:18:50.090Z,9.48
2023-03-20T02:21:28.835Z,9.38
2023-03-20T02:24:15.572Z,9.72
2023-03-20T02:26:47.269Z,9.27
2023-03-20T02:29:35.918Z,9.37
2023-03-20T02:32:11.872Z,8.67
2023-03-20T02:35:17.609Z,8.61
2023-03-20T02:37:50.138Z,8.63
2023-03-20T02:40:39.090Z,8.42
2023-03-20T02:43:18.946Z,8.39
2023-03-20T02:45:50.572Z,8.54
2023-03-20T02:48:33.261Z,8.47
2023-03-20T02:51:20.818Z,8.75
2023-03-20T02:54:22.592Z,8.81
2023-03-20T02:57:12.756Z,8.90
2023-03-20T02:59:46.837Z,8.62
2023-03-20T03:02:17.456Z,8.69
2023-03-20T03:04:54.153Z,8.65
2023-03-20T03:07:23.860Z,8.88
2023-03-20T03:10:24.358Z,9.27
2023-03-20T03:12:52.685Z,9.48
2023-03-20T03:15:33.221Z,9.50
2023-03-20T03:18:01.596Z,9.22
2023-03-20T03:20:32.652Z,9.17
2023-03-20T03:22:59.942Z,9.03
2023-03-20T03:25:29.877Z,9.00
2023-03-20T03:28:32.720Z,8.85
2023-03-20T03:31:00.686Z,9.24
2023-03-20T03:33:32.153Z,9.01
2023-03-20T03:36:11.920Z,8.65
2023-03-20T03:38:45.897Z,8.78
2023-03-20T03:41:34.196Z,8.35
2023-03-20T03:44:08.997Z,8.56
2023-03-20T03:46:45.110Z,8.59
2023-03-20T03:49:16.442Z,9.03
2023-03-20T03:51:45.625Z,8.80
2023-03-20T03:54:30.729Z,9.16
2023-03-20T03:56:58.137Z,9.11
2023-03-20T03:59:35.651Z,9.04
2023-03-20T04:02:03.846Z,9.21
2023-03-20T04:04:32.587Z,9.26
2023-03-20T04:06:59.522Z,9.16
2023-03-20T04:09:26.379Z,9.09
2023-03-20T04:11:53.406Z,9.01
2023-03-20T04:14:20.745Z,9.00
2023-03-20T04:16:47.759Z,9.10
2023-03-20T04:19:14.658Z,9.66
2023-03-20T04:21:41.534Z,9.78
2023-03-20T04:24:08.244Z,10.16
2023-03-20T04:26:35.160Z,10.02
2023-03-20T04:29:02.046Z,9.79
2023-03-20T04:31:28.827Z,9.93
2023-03-20T04:33:55.699Z,9.71
2023-03-20T04:36:22.977Z,9.70
2023-03-20T04:38:50.011Z,9.58
2023-03-20T04:41:16.916Z,9.55
2023-03-20T04:43:43.777Z,9.38
2023-03-20T04:46:10.687Z,9.09
2023-03-20T04:48:37.635Z,9.47
2023-03-20T04:51:04.372Z,9.72
2023-03-20T04:53:31.284Z,9.69
2023-03-20T04:56:00.604Z,9.19
2023-03-20T04:58:28.683Z,9.07
2023-03-20T05:00:55.769Z,9.04
2023-03-20T05:03:24.129Z,8.67
2023-03-20T05:05:51.235Z,9.05
2023-03-20T05:08:18.111Z,8.51
2023-03-20T05:10:44.798Z,8.42
2023-03-20T05:13:11.727Z,8.83
2023-03-20T05:15:38.567Z,8.45
2023-03-20T05:18:05.267Z,8.97
2023-03-20T05:20:32.603Z,9.12
2023-03-20T05:22:59.506Z,9.31
2023-03-20T05:25:26.342Z,9.32
2023-03-20T05:27:53.055Z,9.05
2023-03-20T05:30:19.998Z,8.92
2023-03-20T05:32:50.188Z,8.87
2023-03-20T05:35:17.212Z,9.24
2023-03-20T05:37:44.088Z,9.15
2023-03-20T05:40:14.549Z,8.53
2023-03-20T05:42:41.620Z,9.07
2023-03-20T05:45:09.282Z,9.62
2023-03-20T05:47:36.369Z,9.64
2023-03-20T05:50:04.215Z,9.47
2023-03-20T05:52:31.311Z,9.79
2023-03-20T05:54:58.141Z,9.84
2023-03-20T05:57:24.834Z,9.94
2023-03-20T05:59:51.706Z,10.23
2023-03-20T06:02:18.494Z,10.52
2023-03-20T06:04:45.413Z,11.16
2023-03-20T06:07:12.411Z,11.86
2023-03-20T06:09:39.277Z,12.41
2023-03-20T06:12:06.927Z,12.92
2023-03-20T06:14:33.837Z,13.29
2023-03-20T06:17:01.069Z,14.05
2023-03-20T06:19:27.961Z,14.43
2023-03-20T06:21:54.840Z,14.85
2023-03-20T06:24:21.797Z,14.87
2023-03-20T06:26:48.689Z,15.47
2023-03-20T06:29:15.770Z,15.03
2023-03-20T06:31:42.711Z,14.98
2023-03-20T06:34:09.606Z,15.02
2023-03-20T06:36:36.713Z,15.37
2023-03-20T06:39:22.144Z,15.73
2023-03-20T06:41:49.052Z,15.75
2023-03-20T06:44:16.082Z,15.12
2023-03-20T06:46:43.083Z,14.97
2023-03-20T06:49:10.013Z,15.51
2023-03-20T06:51:37.353Z,15.71
2023-03-20T06:54:04.329Z,16.15
2023-03-20T06:56:32.466Z,16.32
2023-03-20T06:58:59.415Z,16.09
2023-03-20T07:01:26.391Z,16.02
2023-03-20T07:03:53.651Z,16.26
2023-03-20T07:06:20.727Z,16.66
2023-03-20T07:08:47.712Z,16.99
2023-03-20T07:11:14.593Z,17.43
2023-03-20T07:13:41.881Z,17.90
2023-03-20T07:16:09.122Z,17.35
2023-03-20T07:18:36.188Z,17.69
2023-03-20T07:21:05.404Z,17.51
2023-03-20T07:23:34.641Z,17.74
2023-03-20T07:26:01.794Z,18.00
2023-03-20T07:28:28.784Z,17.67
2023-03-20T07:30:55.914Z,16.85
2023-03-20T07:33:22.826Z,16.29
2023-03-20T07:35:54.008Z,16.55
2023-03-20T07:38:39.742Z,16.32
2023-03-20T07:41:06.953Z,16.07
2023-03-20T07:43:34.232Z,15.11
2023-03-20T07:46:05.789Z,15.01
2023-03-20T07:48:32.800Z,15.50
2023-03-20T07:50:59.769Z,15.32
2023-03-20T07:53:27.857Z,15.20
2023-03-20T07:55:54.685Z,15.49
2023-03-20T07:58:21.978Z,15.49
2023-03-20T08:00:48.942Z,16.07
2023-03-20T08:03:15.964Z,15.96
2023-03-20T08:05:45.880Z,16.51
2023-03-20T08:08:15.009Z,16.88
2023-03-20T08:10:42.061Z,16.59
2023-03-20T08:13:08.965Z,16.58
2023-03-20T08:15:36.076Z,16.43
2023-03-20T08:18:03.124Z,16.28
2023-03-20T08:20:31.208Z,16.95
2023-03-20T08:22:58.269Z,16.78
2023-03-20T08:25:25.143Z,16.11
2023-03-20T08:27:52.031Z,16.84
2023-03-20T08:30:19.148Z,17.06
2023-03-20T08:32:46.131Z,16.76
2023-03-20T08:35:29.743Z,16.90
2023-03-20T08:37:59.317Z,16.30
2023-03-20T08:40:26.182Z,16.93
2023-03-20T08:42:53.072Z,17.48
2023-03-20T08:45:20.049Z,17.80
2023-03-20T08:47:50.412Z,17.90
2023-03-20T08:50:17.695Z,17.49
2023-03-20T08:52:44.626Z,17.82
2023-03-20T08:55:12.156Z,18.08
2023-03-20T08:57:39.265Z,18.37
2023-03-20T09:00:07.942Z,18.62
2023-03-20T09:02:34.906Z,18.49
2023-03-20T09:05:02.070Z,18.93
2023-03-20T09:07:28.971Z,18.98
2023-03-20T09:09:55.824Z,19.12
2023-03-20T09:12:22.987Z,19.27
2023-03-20T09:14:49.900Z,18.91
2023-03-20T09:17:17.009Z,18.63
2023-03-20T09:19:44.906Z,17.47
2023-03-20T09:22:15.809Z,17.42
2023-03-20T09:24:42.666Z,17.25
2023-03-20T09:27:15.460Z,16.89
2023-03-20T09:29:43.627Z,16.58
2023-03-20T09:32:14.951Z,16.05
2023-03-20T09:34:42.200Z,16.39
2023-03-20T09:37:09.351Z,16.51
2023-03-20T09:39:36.522Z,16.85
2023-03-20T09:42:26.158Z,17.39
2023-03-20T09:45:11.612Z,17.58
2023-03-20T09:47:50.673Z,16.38
2023-03-20T09:50:24.641Z,16.79
2023-03-20T09:53:07.303Z,16.46
2023-03-20T09:55:37.035Z,16.87
2023-03-20T09:58:21.335Z,16.91
2023-03-20T10:00:48.565Z,17.49
2023-03-20T10:03:25.406Z,17.48
2023-03-20T10:06:00.531Z,17.01
2023-03-20T10:08:31.060Z,16.54
2023-03-20T10:11:07.491Z,16.68
2023-03-20T10:13:49.615Z,16.89
2023-03-20T10:16:54.337Z,16.84
2023-03-20T10:19:29.153Z,16.89
2023-03-20T10:22:25.357Z,16.93
2023-03-20T10:25:01.616Z,17.19
2023-03-20T10:27:41.415Z,17.21
2023-03-20T10:30:29.454Z,17.11
2023-03-20T10:33:08.499Z,17.62
2023-03-20T10:35:50.233Z,17.72
2023-03-20T10:38:32.245Z,17.77
2023-03-20T10:40:59.827Z,17.84
2023-03-20T10:43:38.807Z,18.66
2023-03-20T10:46:20.105Z,18.72
2023-03-20T10:48:51.241Z,19.14
2023-03-20T10:51:20.622Z,18.63
2023-03-20T10:53:56.654Z,18.79
2023-03-20T10:56:36.398Z,18.61
2023-03-20T10:59:24.699Z,19.78
2023-03-20T11:01:51.606Z,19.89
2023-03-20T11:04:19.168Z,18.60
2023-03-20T11:06:55.194Z,19.02
2023-03-20T11:09:24.165Z,20.18
2023-03-20T11:11:55.597Z,19.64
2023-03-20T11:14:26.409Z,20.09
2023-03-20T11:16:55.284Z,18.48
2023-03-20T11:19:24.141Z,18.88
2023-03-20T11:21:58.478Z,19.58
2023-03-20T11:24:28.188Z,20.14
2023-03-20T11:26:56.087Z,20.14
2023-03-20T11:29:35.353Z,20.09
2023-03-20T11:32:07.338Z,20.85
2023-03-20T11:34:38.304Z,21.26
2023-03-20T11:37:10.757Z,19.91
2023-03-20T11:39:40.307Z,20.56
2023-03-20T11:42:25.611Z,19.74
2023-03-20T11:45:04.361Z,19.77
2023-03-20T11:47:35.337Z,19.32
2023-03-20T11:50:05.077Z,18.95
2023-03-20T11:52:37.676Z,18.77
2023-03-20T11:55:08.681Z,19.51
2023-03-20T11:57:39.938Z,20.15
2023-03-20T12:00:22.262Z,20.15
2023-03-20T12:02:49.700Z,19.65
2023-03-20T12:05:33.239Z,20.56
2023-03-20T12:08:16.402Z,20.83
2023-03-20T12:10:47.189Z,20.84
2023-03-20T12:13:18.382Z,21.22
2023-03-20T12:15:48.515Z,21.54
2023-03-20T12:18:36.847Z,20.89
2023-03-20T12:21:18.537Z,19.23
2023-03-20T12:24:02.678Z,19.95
2023-03-20T12:26:33.137Z,20.97
2023-03-20T12:29:03.022Z,20.21
2023-03-20T12:31:36.140Z,20.08
2023-03-20T12:34:16.203Z,20.44
2023-03-20T12:36:45.033Z,20.51
2023-03-20T12:39:28.440Z,20.04
2023-03-20T12:42:18.722Z,20.64
2023-03-20T12:45:13.908Z,20.56
2023-03-20T12:47:58.418Z,20.62
2023-03-20T12:50:42.634Z,19.91
2023-03-20T12:53:09.471Z,19.16
2023-03-20T12:55:43.780Z,19.50
2023-03-20T12:58:25.872Z,19.41
2023-03-20T13:00:59.452Z,19.80
2023-03-20T13:03:47.949Z,19.75
2023-03-20T13:06:36.101Z,20.28
2023-03-20T13:09:36.376Z,19.87
2023-03-20T13:12:21.570Z,19.65
2023-03-20T13:15:07.022Z,20.50
2023-03-20T13:17:42.610Z,20.65
2023-03-20T13:20:32.494Z,19.49
2023-03-20T13:23:20.789Z,19.39
2023-03-20T13:26:14.403Z,18.96
2023-03-20T13:29:07.408Z,18.65
2023-03-20T13:31:58.186Z,19.52
2023-03-20T13:34:54.229Z,19.59
2023-03-20T13:37:36.178Z,19.61
2023-03-20T13:40:24.498Z,19.37
2023-03-20T13:43:16.033Z,19.18
2023-03-20T13:45:43.912Z,18.73
2023-03-20T13:48:16.950Z,18.86
2023-03-20T13:50:52.064Z,19.35
2023-03-20T13:53:30.893Z,19.52
2023-03-20T13:56:14.486Z,19.91
2023-03-20T13:59:19.019Z,19.20
2023-03-20T14:02:01.470Z,19.11
2023-03-20T14:04:29.312Z,18.97
2023-03-20T14:06:58.326Z,18.27
2023-03-20T14:09:28.143Z,18.25
2023-03-20T14:11:57.196Z,18.16
2023-03-20T14:14:43.921Z,18.15
2023-03-20T14:17:30.929Z,17.89
2023-03-20T14:19:58.596Z,17.83
2023-03-20T14:22:34.369Z,18.00
2023-03-20T14:25:09.375Z,18.11
2023-03-20T14:27:53.285Z,18.30
2023-03-20T14:30:32.551Z,19.07
2023-03-20T14:33:15.538Z,19.17
2023-03-20T14:36:11.324Z,18.97
2023-03-20T14:39:00.428Z,19.21
2023-03-20T14:41:31.256Z,19.11
2023-03-20T14:44:39.157Z,18.81
2023-03-20T14:47:21.564Z,19.24
2023-03-20T14:50:06.208Z,19.14
2023-03-20T14:52:48.331Z,19.07
2023-03-20T14:55:18.152Z,19.12
2023-03-20T14:57:56.037Z,19.29
2023-03-20T15:00:25.922Z,20.00
2023-03-20T15:03:14.116Z,19.21
2023-03-20T15:05:43.103Z,18.47
2023-03-20T15:08:14.751Z,18.66
2023-03-20T15:10:48.234Z,18.38
2023-03-20T15:13:16.108Z,18.59
2023-03-20T15:16:13.321Z,19.60
2023-03-20T15:18:46.034Z,19.36
2023-03-20T15:21:18.377Z,19.96
2023-03-20T15:23:46.600Z,20.83
2023-03-20T15:26:18.464Z,21.24
2023-03-20T15:28:46.484Z,21.37
2023-03-20T15:31:26.050Z,21.34
2023-03-20T15:33:53.029Z,20.97
2023-03-20T15:36:23.208Z,21.97
2023-03-20T15:38:50.139Z,22.60
2023-03-20T15:41:28.656Z,22.18
2023-03-20T15:44:04.377Z,21.99
2023-03-20T15:46:31.513Z,21.80
2023-03-20T15:49:00.464Z,21.27
2023-03-20T15:51:28.002Z,21.89
2023-03-20T15:53:55.071Z,21.75
2023-03-20T15:56:25.397Z,21.76
2023-03-20T15:58:52.713Z,21.67
2023-03-20T16:01:21.929Z,21.16
2023-03-20T16:03:49.274Z,21.73
2023-03-20T16:06:18.863Z,21.61
2023-03-20T16:08:47.056Z,21.67
2023-03-20T16:11:17.083Z,21.57
2023-03-20T16:13:46.882Z,21.13
2023-03-20T16:16:16.369Z,21.35
2023-03-20T16:18:43.827Z,21.20
2023-03-20T16:21:17.837Z,21.64
2023-03-20T16:23:46.467Z,21.48
2023-03-20T16:26:17.667Z,21.58
2023-03-20T16:28:50.097Z,21.60
2023-03-20T16:31:19.364Z,21.50
2023-03-20T16:33:47.794Z,21.53
2023-03-20T16:36:21.137Z,21.11
2023-03-20T16:39:08.810Z,21.62
2023-03-20T16:41:36.564Z,21.50
2023-03-20T16:44:19.850Z,21.26
2023-03-20T16:47:11.246Z,20.85
2023-03-20T16:50:17.655Z,19.84
2023-03-20T16:52:52.766Z,20.38
2023-03-20T16:55:32.576Z,19.98
2023-03-20T16:58:04.614Z,20.56
2023-03-20T17:00:33.963Z,20.50
2023-03-20T17:03:49.614Z,20.90
2023-03-20T17:06:19.880Z,21.95
2023-03-20T17:08:49.200Z,22.08
2023-03-20T17:11:47.904Z,21.35
2023-03-20T17:14:14.844Z,20.74
2023-03-20T17:16:41.988Z,21.16
2023-03-20T17:19:16.590Z,20.64
2023-03-20T17:21:44.915Z,20.96
2023-03-20T17:24:12.703Z,20.65
2023-03-20T17:26:41.136Z,20.49
2023-03-20T17:29:08.318Z,20.46
2023-03-20T17:31:35.200Z,20.58
2023-03-20T17:34:02.088Z,20.60
2023-03-20T17:36:31.729Z,20.10
2023-03-20T17:38:59.715Z,20.58
2023-03-20T17:41:27.458Z,20.06
2023-03-20T17:43:56.330Z,20.18
2023-03-20T17:46:26.863Z,20.14
2023-03-20T17:48:59.459Z,20.32
2023-03-20T17:51:26.360Z,20.03
2023-03-20T17:53:58.038Z,19.60
2023-03-20T17:56:30.268Z,18.66
2023-03-20T17:58:57.805Z,19.11
2023-03-20T18:01:25.196Z,18.87
2023-03-20T18:03:52.332Z,18.85
2023-03-20T18:06:39.399Z,18.70
2023-03-20T18:09:06.599Z,19.18
2023-03-20T18:11:33.562Z,18.57
2023-03-20T18:14:02.170Z,18.83
2023-03-20T18:16:29.068Z,18.40
2023-03-20T18:18:55.984Z,18.00
2023-03-20T18:21:22.854Z,18.08
2023-03-20T18:23:49.750Z,18.78
2023-03-20T18:26:18.050Z,18.53
2023-03-20T18:28:44.943Z,18.47
2023-03-20T18:31:13.502Z,18.33
2023-03-20T18:33:42.488Z,18.20
2023-03-20T18:36:14.684Z,17.41
2023-03-20T18:38:41.617Z,17.62
2023-03-20T18:41:08.940Z,17.09
2023-03-20T18:43:36.339Z,16.83
2023-03-20T18:46:03.259Z,16.84
2023-03-20T18:48:33.353Z,16.72
2023-03-20T18:51:03.238Z,16.20
2023-03-20T18:53:30.335Z,16.88
2023-03-20T18:55:57.422Z,16.50
2023-03-20T18:58:26.711Z,16.60
2023-03-20T19:00:55.997Z,16.88
2023-03-20T19:03:24.636Z,16.74
2023-03-20T19:05:52.636Z,17.14
2023-03-20T19:08:19.863Z,16.97
2023-03-20T19:10:47.300Z,17.34
2023-03-20T19:13:21.657Z,16.96
2023-03-20T19:15:48.623Z,16.90
2023-03-20T19:18:20.576Z,16.34
2023-03-20T19:20:49.440Z,16.67
2023-03-20T19:23:18.078Z,16.70
2023-03-20T19:25:47.157Z,16.87
2023-03-20T19:28:39.267Z,16.55
2023-03-20T19:31:09.293Z,16.43
2023-03-20T19:33:37.164Z,16.81
2023-03-20T19:36:04.848Z,16.99
2023-03-20T19:38:32.739Z,16.92
2023-03-20T19:41:01.802Z,16.85
2023-03-20T19:43:29.377Z,16.94
2023-03-20T19:45:59.019Z,16.49
2023-03-20T19:48:46.165Z,16.69
2023-03-20T19:51:24.037Z,16.85
2023-03-20T19:53:51.289Z,17.18
2023-03-20T19:56:19.765Z,17.02
2023-03-20T19:58:47.581Z,16.98
2023-03-20T20:01:25.368Z,17.13
2023-03-20T20:03:57.584Z,17.22
2023-03-20T20:06:30.921Z,17.28
2023-03-20T20:08:59.174Z,17.22
2023-03-20T20:11:26.266Z,17.17
2023-03-20T20:14:10.008Z,16.72
2023-03-20T20:16:39.930Z,16.59
2023-03-20T20:19:07.270Z,16.32
2023-03-20T20:24:21.807Z,16.82
2023-03-20T20:26:55.019Z,17.59
2023-03-20T20:29:24.932Z,17.61
2023-03-20T20:31:52.045Z,17.53
2023-03-20T20:37:56.524Z,17.18
2023-03-20T20:39:53.827Z,16.71
2023-03-20T20:42:20.856Z,16.60
2023-03-20T20:44:47.907Z,16.84
2023-03-20T20:47:15.048Z,16.91
2023-03-20T20:49:41.981Z,17.12
2023-03-20T20:52:09.780Z,16.68
2023-03-20T20:54:36.774Z,17.48
2023-03-20T20:57:04.017Z,16.61
2023-03-20T20:59:30.990Z,16.48
2023-03-20T21:01:57.912Z,17.39
2023-03-20T21:04:24.821Z,17.17
2023-03-20T21:07:09.323Z,17.16
2023-03-20T21:09:37.445Z,17.04
2023-03-20T21:12:04.999Z,16.79
2023-03-20T21:14:32.130Z,16.13
2023-03-20T21:17:02.051Z,15.90
2023-03-20T21:19:42.315Z,16.15
2023-03-20T21:22:12.323Z,16.73
2023-03-20T21:24:39.900Z,16.63
2023-03-20T21:27:11.095Z,16.42
2023-03-20T21:29:39.281Z,15.77
2023-03-20T21:32:06.434Z,15.54
2023-03-20T21:34:33.362Z,16.04
2023-03-20T21:37:20.620Z,16.47
2023-03-20T21:39:51.250Z,16.45
2023-03-20T21:42:18.716Z,15.76
2023-03-20T21:45:20.674Z,15.46
2023-03-20T21:51:03.060Z,15.52
2023-03-20T21:59:25.322Z,16.77
2023-03-20T22:02:00.198Z,15.48
2023-03-20T22:05:09.812Z,16.24
2023-03-20T22:07:38.273Z,16.44
2023-03-20T22:10:34.515Z,16.13
2023-03-20T22:13:21.011Z,15.65
2023-03-20T22:16:03.232Z,15.66
2023-03-20T22:19:18.456Z,15.45
2023-03-20T22:21:45.413Z,15.78
2023-03-20T22:27:35.199Z,16.11
2023-03-20T22:30:02.579Z,15.48
2023-03-20T22:35:46.807Z,14.51
2023-03-20T22:41:36.020Z,15.25
2023-03-20T22:46:22.680Z,15.70
2023-03-20T22:48:49.336Z,14.97
2023-03-20T22:51:16.478Z,14.29
2023-03-20T22:53:45.119Z,14.05
2023-03-20T22:56:12.474Z,14.96
2023-03-20T22:58:39.504Z,13.82
2023-03-20T23:01:08.134Z,14.66
2023-03-20T23:03:41.530Z,14.63
2023-03-20T23:06:21.170Z,15.02
2023-03-20T23:08:55.231Z,15.24
2023-03-20T23:11:25.305Z,15.41
2023-03-20T23:13:52.778Z,15.22
2023-03-20T23:16:20.000Z,15.15
2023-03-20T23:18:46.962Z,15.75
2023-03-20T23:21:13.871Z,15.09
2023-03-20T23:23:40.913Z,15.31
2023-03-20T23:26:16.113Z,15.15
2023-03-20T23:28:45.324Z,15.50
2023-03-20T23:31:18.125Z,15.31
2023-03-20T23:33:49.063Z,14.97
2023-03-20T23:36:32.720Z,14.83
2023-03-20T23:39:01.696Z,15.35
2023-03-20T23:41:57.678Z,14.25
2023-03-20T23:44:15.641Z,15.40
2023-03-20T23:46:42.556Z,14.54
2023-03-20T23:49:09.439Z,13.95
2023-03-20T23:51:36.299Z,13.67
2023-03-20T23:54:03.274Z,13.93
2023-03-20T23:56:30.120Z,14.67
2023-03-20T23:59:05.341Z,13.99
